SBGO/GYN METAR and TAF weather

Enter ICAO airport designator
Station Type Date Time Source
SBGO METAR 2021/07/30 07:00 UTC NOAA

SBGO 300700Z 15005KT CAVOK 11/01 Q1022


Station Type Date Time Source
SBGO Decoded METAR 2021/07/30 07:00 UTC NOAA

Goiania Aeroporto , Brazil (SBGO) 16-38S 049-13W
Jul 30, 2021 - 03:00 AM EDT / 2021.07.30 0700 UTC
Wind: from the SSE (150 degrees) at 6 MPH (5 KT):0
Visibility: greater than 7 mile(s):0
Temperature: 51 F (11 C)
Dew Point: 33 F (1 C)
Relative Humidity: 50%
Pressure (altimeter): 30.18 in. Hg (1022 hPa)
ob: SBGO 300700Z 15005KT CAVOK 11/01 Q1022
cycle: 7

Station Type Date Time Source
SBGO TAF 2021/07/30 06:09 UTC NOAA

TAF SBGO 300200Z 3006/3106 16008KT CAVOK TN10/3009Z TX27/3017Z
BECMG 3011/3013 11005KT
BECMG 3015/3017 20005KT
BECMG 3020/3022 16005KT
BECMG 3103/3105 10005KT
RMK PGN

Example: see airport list